This is the latest recevied weather packets stored in our database for station/object KC4JIR. If no packets are shown the sender has not sent any weather packets the latest 10 day(s).
| Time | Temp. | Humidity | Pressure | Rain* | Wind** | Luminosity | Snow |
|---|---|---|---|---|---|---|---|
| 1778154449 | 19.44° C | 99% | 1009.7 hPa | 0 mm | - | 3 W/m² | - |
| 1778154147 | 19.44° C | 99% | 1009.6 hPa | 0 mm | - | 0 W/m² | - |
| 1778153844 | 19.44° C | 99% | 1009.7 hPa | 0 mm | - | 3 W/m² | - |
| 1778153541 | 19.44° C | 99% | 1009.5 hPa | 0 mm | - | 0 W/m² | - |
| 1778153239 | 19.44° C | 99% | 1009.3 hPa | 0 mm | - | 0 W/m² | - |
| 1778152936 | 19.44° C | 99% | 1009.3 hPa | 0 mm | - | 1 W/m² | - |
| 1778152633 | 19.44° C | 99% | 1009.4 hPa | 0 mm | - | 0 W/m² | - |
| 1778152330 | 19.44° C | 99% | 1009.1 hPa | 1.78 mm | - | 0 W/m² | - |
| 1778152026 | 19.44° C | 99% | 1008.5 hPa | 1.78 mm | - | 0 W/m² | - |
| 1778150813 | 19.44° C | 99% | 1009.4 hPa | 0 mm | - | 0 W/m² | - |
| 1778150509 | 19.44° C | 99% | 1009.3 hPa | 0 mm | - | 0 W/m² | - |
| 1778150205 | 19.44° C | 99% | 1009.4 hPa | 0 mm | - | 0 W/m² | - |
| 1778149902 | 19.44° C | 99% | 1009.4 hPa | 0 mm | - | 0 W/m² | - |
| 1778149598 | 19.44° C | 99% | 1009.6 hPa | 0 mm | - | 0 W/m² | - |
| 1778149295 | 19.44° C | 99% | 1009.3 hPa | 0 mm | - | 0 W/m² | - |
| 1778148991 | 19.44° C | 99% | 1008.9 hPa | 0 mm | - | 0 W/m² | - |
| 1778148687 | 19.44° C | 99% | 1008.2 hPa | 0 mm | - | 0 W/m² | - |
| 1778148384 | 19.44° C | 99% | 1008.3 hPa | 0 mm | - | 0 W/m² | - |
| 1778148082 | 19.44° C | 99% | 1008.8 hPa | 0 mm | - | 0 W/m² | - |
| 1778147780 | 19.44° C | 99% | 1009 hPa | 0 mm | - | 0 W/m² | - |
| 1778147476 | 19.44° C | 99% | 1009.3 hPa | 0 mm | - | 0 W/m² | - |
| 1778147172 | 19.44° C | 99% | 1009.7 hPa | 0 mm | - | 0 W/m² | - |
| 1778146870 | 19.44° C | 99% | 1009.6 hPa | 1.27 mm | - | 0 W/m² | - |
| 1778146567 | 19.44° C | 99% | 1009.3 hPa | 3.05 mm | - | 0 W/m² | - |
| 1778146266 | 19.44° C | 99% | 1009.5 hPa | 1.78 mm | - | 0 W/m² | - |
* Rain latest hour (hover to see other rain measurements)
** Current wind speed in m/s (hover to see current wind gust speed)